sensor_id;sensor_type;location;lat;lon;timestamp;P1;durP1;ratioP1;P2;durP2;ratioP2
8104;SDS011;4095;48.942;9.104;2022-12-18T00:00:43;63.13;;;33.70;;
8104;SDS011;4095;48.942;9.104;2022-12-18T00:03:09;59.63;;;31.23;;
8104;SDS011;4095;48.942;9.104;2022-12-18T00:05:35;57.77;;;30.93;;
8104;SDS011;4095;48.942;9.104;2022-12-18T00:08:01;67.33;;;32.17;;
8104;SDS011;4095;48.942;9.104;2022-12-18T00:10:27;56.43;;;30.13;;
8104;SDS011;4095;48.942;9.104;2022-12-18T00:12:53;62.13;;;30.87;;
8104;SDS011;4095;48.942;9.104;2022-12-18T00:15:18;58.57;;;30.80;;
8104;SDS011;4095;48.942;9.104;2022-12-18T00:17:44;59.57;;;31.70;;
8104;SDS011;4095;48.942;9.104;2022-12-18T00:20:09;59.03;;;31.90;;
8104;SDS011;4095;48.942;9.104;2022-12-18T00:22:35;59.17;;;31.77;;
8104;SDS011;4095;48.942;9.104;2022-12-18T00:25:01;63.93;;;32.83;;
8104;SDS011;4095;48.942;9.104;2022-12-18T00:27:26;59.90;;;31.20;;
8104;SDS011;4095;48.942;9.104;2022-12-18T00:29:52;64.20;;;33.30;;
8104;SDS011;4095;48.942;9.104;2022-12-18T00:32:18;58.77;;;31.13;;
8104;SDS011;4095;48.942;9.104;2022-12-18T00:34:43;64.60;;;33.80;;
8104;SDS011;4095;48.942;9.104;2022-12-18T00:37:09;65.87;;;32.07;;
8104;SDS011;4095;48.942;9.104;2022-12-18T00:39:34;62.53;;;32.97;;
8104;SDS011;4095;48.942;9.104;2022-12-18T00:42:00;62.13;;;33.87;;
8104;SDS011;4095;48.942;9.104;2022-12-18T00:44:44;66.73;;;33.67;;
8104;SDS011;4095;48.942;9.104;2022-12-18T00:47:09;67.60;;;33.03;;
8104;SDS011;4095;48.942;9.104;2022-12-18T00:49:35;67.13;;;33.40;;
8104;SDS011;4095;48.942;9.104;2022-12-18T00:52:00;60.87;;;32.03;;
8104;SDS011;4095;48.942;9.104;2022-12-18T00:54:26;65.43;;;33.67;;
8104;SDS011;4095;48.942;9.104;2022-12-18T00:56:52;61.70;;;33.10;;
8104;SDS011;4095;48.942;9.104;2022-12-18T00:59:17;63.07;;;32.13;;
8104;SDS011;4095;48.942;9.104;2022-12-18T01:01:43;60.60;;;33.07;;
8104;SDS011;4095;48.942;9.104;2022-12-18T01:04:09;64.83;;;33.33;;
8104;SDS011;4095;48.942;9.104;2022-12-18T01:06:35;63.10;;;33.07;;
8104;SDS011;4095;48.942;9.104;2022-12-18T01:09:01;65.03;;;32.53;;
8104;SDS011;4095;48.942;9.104;2022-12-18T01:11:27;57.87;;;31.93;;
8104;SDS011;4095;48.942;9.104;2022-12-18T01:13:53;59.80;;;32.03;;
8104;SDS011;4095;48.942;9.104;2022-12-18T01:16:19;66.73;;;33.83;;
8104;SDS011;4095;48.942;9.104;2022-12-18T01:18:45;65.20;;;32.47;;
8104;SDS011;4095;48.942;9.104;2022-12-18T01:21:13;59.90;;;30.93;;
8104;SDS011;4095;48.942;9.104;2022-12-18T01:23:41;63.67;;;32.37;;
8104;SDS011;4095;48.942;9.104;2022-12-18T01:26:11;65.50;;;31.63;;
8104;SDS011;4095;48.942;9.104;2022-12-18T01:28:39;60.53;;;31.10;;
8104;SDS011;4095;48.942;9.104;2022-12-18T01:33:43;55.87;;;30.27;;
8104;SDS011;4095;48.942;9.104;2022-12-18T01:36:14;62.73;;;32.50;;
8104;SDS011;4095;48.942;9.104;2022-12-18T01:38:40;64.90;;;32.07;;
8104;SDS011;4095;48.942;9.104;2022-12-18T01:41:06;60.37;;;31.03;;
8104;SDS011;4095;48.942;9.104;2022-12-18T01:43:50;64.93;;;33.93;;
8104;SDS011;4095;48.942;9.104;2022-12-18T01:46:19;69.20;;;34.23;;
8104;SDS011;4095;48.942;9.104;2022-12-18T01:48:47;63.67;;;32.90;;
8104;SDS011;4095;48.942;9.104;2022-12-18T01:51:15;64.87;;;32.97;;
8104;SDS011;4095;48.942;9.104;2022-12-18T01:53:41;63.57;;;33.03;;
8104;SDS011;4095;48.942;9.104;2022-12-18T01:56:08;60.27;;;32.77;;
8104;SDS011;4095;48.942;9.104;2022-12-18T02:01:22;70.93;;;33.80;;
8104;SDS011;4095;48.942;9.104;2022-12-18T02:03:48;66.47;;;33.67;;
8104;SDS011;4095;48.942;9.104;2022-12-18T02:06:16;67.53;;;35.50;;
8104;SDS011;4095;48.942;9.104;2022-12-18T02:09:05;64.73;;;34.50;;
8104;SDS011;4095;48.942;9.104;2022-12-18T02:17:16;65.27;;;31.07;;
8104;SDS011;4095;48.942;9.104;2022-12-18T02:20:01;67.23;;;34.93;;
8104;SDS011;4095;48.942;9.104;2022-12-18T02:27:49;65.23;;;35.33;;
8104;SDS011;4095;48.942;9.104;2022-12-18T02:30:17;67.73;;;34.23;;
8104;SDS011;4095;48.942;9.104;2022-12-18T02:32:45;66.90;;;33.80;;
8104;SDS011;4095;48.942;9.104;2022-12-18T02:35:16;60.73;;;34.17;;
8104;SDS011;4095;48.942;9.104;2022-12-18T02:37:47;66.97;;;34.67;;
8104;SDS011;4095;48.942;9.104;2022-12-18T02:40:13;68.17;;;36.20;;
8104;SDS011;4095;48.942;9.104;2022-12-18T02:42:40;65.17;;;35.07;;
8104;SDS011;4095;48.942;9.104;2022-12-18T02:45:06;64.17;;;34.37;;
8104;SDS011;4095;48.942;9.104;2022-12-18T02:47:33;65.10;;;35.00;;
8104;SDS011;4095;48.942;9.104;2022-12-18T02:53:03;67.03;;;34.57;;
8104;SDS011;4095;48.942;9.104;2022-12-18T02:55:42;62.83;;;33.80;;
8104;SDS011;4095;48.942;9.104;2022-12-18T03:01:12;62.77;;;34.53;;
8104;SDS011;4095;48.942;9.104;2022-12-18T03:03:47;61.23;;;32.83;;
8104;SDS011;4095;48.942;9.104;2022-12-18T03:06:24;65.83;;;34.93;;
8104;SDS011;4095;48.942;9.104;2022-12-18T03:09:07;62.03;;;33.20;;
8104;SDS011;4095;48.942;9.104;2022-12-18T03:11:40;67.17;;;35.47;;
8104;SDS011;4095;48.942;9.104;2022-12-18T03:14:29;62.37;;;33.97;;
8104;SDS011;4095;48.942;9.104;2022-12-18T03:16:58;63.40;;;34.57;;
8104;SDS011;4095;48.942;9.104;2022-12-18T03:19:27;63.30;;;32.93;;
8104;SDS011;4095;48.942;9.104;2022-12-18T03:21:56;69.10;;;34.20;;
8104;SDS011;4095;48.942;9.104;2022-12-18T03:24:24;64.00;;;33.77;;
8104;SDS011;4095;48.942;9.104;2022-12-18T03:26:53;61.00;;;33.83;;
8104;SDS011;4095;48.942;9.104;2022-12-18T03:29:27;61.53;;;33.03;;
8104;SDS011;4095;48.942;9.104;2022-12-18T03:31:55;61.20;;;35.23;;
8104;SDS011;4095;48.942;9.104;2022-12-18T03:34:29;66.87;;;34.23;;
8104;SDS011;4095;48.942;9.104;2022-12-18T03:36:57;66.87;;;35.20;;
8104;SDS011;4095;48.942;9.104;2022-12-18T03:39:23;67.83;;;35.27;;
8104;SDS011;4095;48.942;9.104;2022-12-18T03:44:44;63.47;;;33.43;;
8104;SDS011;4095;48.942;9.104;2022-12-18T03:47:39;62.23;;;32.67;;
8104;SDS011;4095;48.942;9.104;2022-12-18T03:50:21;64.83;;;34.33;;
8104;SDS011;4095;48.942;9.104;2022-12-18T03:52:58;67.20;;;32.83;;
8104;SDS011;4095;48.942;9.104;2022-12-18T03:55:31;57.73;;;30.90;;
8104;SDS011;4095;48.942;9.104;2022-12-18T03:57:59;62.70;;;32.63;;
8104;SDS011;4095;48.942;9.104;2022-12-18T04:00:28;63.20;;;33.77;;
8104;SDS011;4095;48.942;9.104;2022-12-18T04:02:55;63.50;;;32.87;;
8104;SDS011;4095;48.942;9.104;2022-12-18T04:05:25;59.60;;;33.73;;
8104;SDS011;4095;48.942;9.104;2022-12-18T04:07:52;56.27;;;31.83;;
8104;SDS011;4095;48.942;9.104;2022-12-18T04:10:19;62.47;;;32.73;;
8104;SDS011;4095;48.942;9.104;2022-12-18T04:12:45;60.70;;;33.20;;
8104;SDS011;4095;48.942;9.104;2022-12-18T04:15:11;58.93;;;31.80;;
8104;SDS011;4095;48.942;9.104;2022-12-18T04:17:37;61.73;;;32.07;;
8104;SDS011;4095;48.942;9.104;2022-12-18T04:20:04;63.27;;;32.47;;
8104;SDS011;4095;48.942;9.104;2022-12-18T04:22:30;59.23;;;32.03;;
8104;SDS011;4095;48.942;9.104;2022-12-18T04:24:55;58.10;;;31.27;;
8104;SDS011;4095;48.942;9.104;2022-12-18T04:27:21;65.33;;;32.63;;
8104;SDS011;4095;48.942;9.104;2022-12-18T04:29:47;55.80;;;31.73;;
8104;SDS011;4095;48.942;9.104;2022-12-18T04:32:12;58.17;;;31.17;;
8104;SDS011;4095;48.942;9.104;2022-12-18T04:34:38;63.23;;;32.70;;
8104;SDS011;4095;48.942;9.104;2022-12-18T04:37:03;62.13;;;31.93;;
8104;SDS011;4095;48.942;9.104;2022-12-18T04:39:29;58.03;;;31.70;;
8104;SDS011;4095;48.942;9.104;2022-12-18T04:41:54;58.17;;;31.77;;
8104;SDS011;4095;48.942;9.104;2022-12-18T04:44:20;56.20;;;31.30;;
8104;SDS011;4095;48.942;9.104;2022-12-18T04:46:45;55.80;;;30.73;;
8104;SDS011;4095;48.942;9.104;2022-12-18T04:49:11;52.43;;;28.93;;
8104;SDS011;4095;48.942;9.104;2022-12-18T04:51:37;54.80;;;28.70;;
8104;SDS011;4095;48.942;9.104;2022-12-18T04:54:03;59.13;;;30.03;;
8104;SDS011;4095;48.942;9.104;2022-12-18T04:56:30;57.07;;;30.97;;
8104;SDS011;4095;48.942;9.104;2022-12-18T04:58:56;51.30;;;28.57;;
8104;SDS011;4095;48.942;9.104;2022-12-18T05:01:22;55.63;;;29.83;;
8104;SDS011;4095;48.942;9.104;2022-12-18T05:03:48;53.07;;;28.37;;
8104;SDS011;4095;48.942;9.104;2022-12-18T05:06:13;53.20;;;28.37;;
8104;SDS011;4095;48.942;9.104;2022-12-18T05:08:39;60.30;;;31.67;;
8104;SDS011;4095;48.942;9.104;2022-12-18T05:11:06;60.40;;;30.43;;
8104;SDS011;4095;48.942;9.104;2022-12-18T05:13:34;57.90;;;30.60;;
8104;SDS011;4095;48.942;9.104;2022-12-18T05:16:00;54.53;;;29.70;;
8104;SDS011;4095;48.942;9.104;2022-12-18T05:18:26;58.67;;;29.23;;
8104;SDS011;4095;48.942;9.104;2022-12-18T05:20:53;57.90;;;29.60;;
8104;SDS011;4095;48.942;9.104;2022-12-18T05:23:19;58.73;;;28.90;;
8104;SDS011;4095;48.942;9.104;2022-12-18T05:25:53;59.13;;;30.43;;
8104;SDS011;4095;48.942;9.104;2022-12-18T05:28:20;53.97;;;29.53;;
8104;SDS011;4095;48.942;9.104;2022-12-18T05:30:48;57.87;;;30.63;;
8104;SDS011;4095;48.942;9.104;2022-12-18T05:33:18;58.27;;;29.73;;
8104;SDS011;4095;48.942;9.104;2022-12-18T05:35:49;61.00;;;30.23;;
8104;SDS011;4095;48.942;9.104;2022-12-18T05:38:16;54.63;;;29.53;;
8104;SDS011;4095;48.942;9.104;2022-12-18T05:40:42;55.07;;;29.97;;
8104;SDS011;4095;48.942;9.104;2022-12-18T05:43:08;53.80;;;29.00;;
8104;SDS011;4095;48.942;9.104;2022-12-18T05:45:36;55.47;;;29.57;;
8104;SDS011;4095;48.942;9.104;2022-12-18T05:48:03;51.67;;;28.20;;
8104;SDS011;4095;48.942;9.104;2022-12-18T05:50:29;60.50;;;30.83;;
8104;SDS011;4095;48.942;9.104;2022-12-18T05:52:54;53.87;;;29.10;;
8104;SDS011;4095;48.942;9.104;2022-12-18T05:55:20;50.20;;;29.33;;
8104;SDS011;4095;48.942;9.104;2022-12-18T05:57:45;50.33;;;27.57;;
8104;SDS011;4095;48.942;9.104;2022-12-18T06:00:11;51.93;;;27.93;;
8104;SDS011;4095;48.942;9.104;2022-12-18T06:02:37;51.97;;;27.63;;
8104;SDS011;4095;48.942;9.104;2022-12-18T06:05:03;49.30;;;26.77;;
8104;SDS011;4095;48.942;9.104;2022-12-18T06:07:29;48.97;;;26.87;;
8104;SDS011;4095;48.942;9.104;2022-12-18T06:09:54;52.67;;;26.37;;
8104;SDS011;4095;48.942;9.104;2022-12-18T06:12:20;50.23;;;27.57;;
8104;SDS011;4095;48.942;9.104;2022-12-18T06:14:46;47.60;;;25.90;;
8104;SDS011;4095;48.942;9.104;2022-12-18T06:17:11;47.83;;;25.80;;
8104;SDS011;4095;48.942;9.104;2022-12-18T06:19:37;47.50;;;24.83;;
8104;SDS011;4095;48.942;9.104;2022-12-18T06:22:02;42.47;;;24.10;;
8104;SDS011;4095;48.942;9.104;2022-12-18T06:24:28;48.87;;;25.57;;
8104;SDS011;4095;48.942;9.104;2022-12-18T06:26:54;43.90;;;23.77;;
8104;SDS011;4095;48.942;9.104;2022-12-18T06:29:20;45.23;;;24.93;;
8104;SDS011;4095;48.942;9.104;2022-12-18T06:31:46;47.10;;;25.00;;
8104;SDS011;4095;48.942;9.104;2022-12-18T06:34:11;40.00;;;22.27;;
8104;SDS011;4095;48.942;9.104;2022-12-18T06:36:37;46.33;;;23.93;;
8104;SDS011;4095;48.942;9.104;2022-12-18T06:39:02;43.33;;;23.50;;
8104;SDS011;4095;48.942;9.104;2022-12-18T06:41:28;43.83;;;22.70;;
8104;SDS011;4095;48.942;9.104;2022-12-18T06:43:54;42.43;;;23.67;;
8104;SDS011;4095;48.942;9.104;2022-12-18T06:46:19;40.87;;;22.67;;
8104;SDS011;4095;48.942;9.104;2022-12-18T06:48:49;41.40;;;23.73;;
8104;SDS011;4095;48.942;9.104;2022-12-18T06:51:19;41.20;;;22.70;;
8104;SDS011;4095;48.942;9.104;2022-12-18T06:53:46;40.53;;;22.80;;
8104;SDS011;4095;48.942;9.104;2022-12-18T06:56:11;41.60;;;22.37;;
8104;SDS011;4095;48.942;9.104;2022-12-18T06:58:38;41.03;;;22.07;;
8104;SDS011;4095;48.942;9.104;2022-12-18T07:01:04;45.50;;;24.30;;
8104;SDS011;4095;48.942;9.104;2022-12-18T07:03:33;46.33;;;24.23;;
8104;SDS011;4095;48.942;9.104;2022-12-18T07:05:59;42.43;;;23.30;;
8104;SDS011;4095;48.942;9.104;2022-12-18T07:08:25;45.23;;;24.00;;
8104;SDS011;4095;48.942;9.104;2022-12-18T07:10:50;48.07;;;23.07;;
8104;SDS011;4095;48.942;9.104;2022-12-18T07:13:16;48.93;;;24.00;;
8104;SDS011;4095;48.942;9.104;2022-12-18T07:15:42;44.80;;;23.53;;
8104;SDS011;4095;48.942;9.104;2022-12-18T07:18:09;43.80;;;23.47;;
8104;SDS011;4095;48.942;9.104;2022-12-18T07:20:35;46.67;;;24.50;;
8104;SDS011;4095;48.942;9.104;2022-12-18T07:23:04;43.43;;;23.37;;
8104;SDS011;4095;48.942;9.104;2022-12-18T07:25:30;44.87;;;22.83;;
8104;SDS011;4095;48.942;9.104;2022-12-18T07:28:02;41.37;;;23.50;;
8104;SDS011;4095;48.942;9.104;2022-12-18T07:30:28;45.87;;;24.60;;
8104;SDS011;4095;48.942;9.104;2022-12-18T07:32:54;41.43;;;23.03;;
8104;SDS011;4095;48.942;9.104;2022-12-18T07:35:19;47.60;;;25.17;;
8104;SDS011;4095;48.942;9.104;2022-12-18T07:37:45;41.93;;;23.43;;
8104;SDS011;4095;48.942;9.104;2022-12-18T07:40:11;48.57;;;24.37;;
8104;SDS011;4095;48.942;9.104;2022-12-18T07:42:37;47.77;;;26.33;;
8104;SDS011;4095;48.942;9.104;2022-12-18T07:45:02;45.57;;;24.40;;
8104;SDS011;4095;48.942;9.104;2022-12-18T07:47:28;39.30;;;22.63;;
8104;SDS011;4095;48.942;9.104;2022-12-18T07:49:54;44.03;;;24.13;;
8104;SDS011;4095;48.942;9.104;2022-12-18T07:52:20;41.87;;;23.23;;
8104;SDS011;4095;48.942;9.104;2022-12-18T07:54:46;51.83;;;23.80;;
8104;SDS011;4095;48.942;9.104;2022-12-18T07:57:14;50.50;;;24.50;;
8104;SDS011;4095;48.942;9.104;2022-12-18T07:59:40;46.10;;;23.67;;
8104;SDS011;4095;48.942;9.104;2022-12-18T08:02:05;48.73;;;25.77;;
8104;SDS011;4095;48.942;9.104;2022-12-18T08:04:31;49.03;;;25.03;;
8104;SDS011;4095;48.942;9.104;2022-12-18T08:06:56;47.80;;;25.37;;
8104;SDS011;4095;48.942;9.104;2022-12-18T08:09:22;48.33;;;26.13;;
8104;SDS011;4095;48.942;9.104;2022-12-18T08:11:47;46.83;;;25.23;;
8104;SDS011;4095;48.942;9.104;2022-12-18T08:14:13;50.23;;;25.83;;
8104;SDS011;4095;48.942;9.104;2022-12-18T08:16:39;49.70;;;25.93;;
8104;SDS011;4095;48.942;9.104;2022-12-18T08:19:05;49.43;;;25.33;;
8104;SDS011;4095;48.942;9.104;2022-12-18T08:21:30;53.00;;;26.97;;
8104;SDS011;4095;48.942;9.104;2022-12-18T08:23:57;47.30;;;24.80;;
8104;SDS011;4095;48.942;9.104;2022-12-18T08:26:25;46.70;;;25.83;;
8104;SDS011;4095;48.942;9.104;2022-12-18T08:28:53;46.30;;;26.63;;
8104;SDS011;4095;48.942;9.104;2022-12-18T08:31:20;46.30;;;25.27;;
8104;SDS011;4095;48.942;9.104;2022-12-18T08:33:48;46.43;;;25.07;;
8104;SDS011;4095;48.942;9.104;2022-12-18T08:36:14;49.73;;;26.97;;
8104;SDS011;4095;48.942;9.104;2022-12-18T08:38:40;53.53;;;30.17;;
8104;SDS011;4095;48.942;9.104;2022-12-18T08:41:07;51.63;;;27.83;;
8104;SDS011;4095;48.942;9.104;2022-12-18T08:43:34;45.30;;;28.13;;
8104;SDS011;4095;48.942;9.104;2022-12-18T08:46:18;47.03;;;26.43;;
8104;SDS011;4095;48.942;9.104;2022-12-18T08:48:45;50.27;;;28.47;;
8104;SDS011;4095;48.942;9.104;2022-12-18T08:51:11;46.77;;;27.63;;
8104;SDS011;4095;48.942;9.104;2022-12-18T08:53:37;51.87;;;30.10;;
8104;SDS011;4095;48.942;9.104;2022-12-18T08:56:03;53.53;;;30.03;;
8104;SDS011;4095;48.942;9.104;2022-12-18T08:58:29;59.37;;;31.07;;
8104;SDS011;4095;48.942;9.104;2022-12-18T09:00:59;52.20;;;29.90;;
8104;SDS011;4095;48.942;9.104;2022-12-18T09:03:26;51.93;;;29.07;;
8104;SDS011;4095;48.942;9.104;2022-12-18T09:05:51;47.53;;;29.13;;
8104;SDS011;4095;48.942;9.104;2022-12-18T09:08:17;55.67;;;29.53;;
8104;SDS011;4095;48.942;9.104;2022-12-18T09:10:46;53.57;;;30.20;;
8104;SDS011;4095;48.942;9.104;2022-12-18T09:13:13;48.73;;;27.80;;
8104;SDS011;4095;48.942;9.104;2022-12-18T09:15:43;53.33;;;30.83;;
8104;SDS011;4095;48.942;9.104;2022-12-18T09:18:11;55.23;;;28.53;;
8104;SDS011;4095;48.942;9.104;2022-12-18T09:20:37;47.50;;;28.70;;
8104;SDS011;4095;48.942;9.104;2022-12-18T09:23:03;53.13;;;29.43;;
8104;SDS011;4095;48.942;9.104;2022-12-18T09:25:29;45.57;;;26.97;;
8104;SDS011;4095;48.942;9.104;2022-12-18T09:28:00;47.47;;;27.60;;
8104;SDS011;4095;48.942;9.104;2022-12-18T09:30:31;50.50;;;28.07;;
8104;SDS011;4095;48.942;9.104;2022-12-18T09:32:58;48.03;;;28.80;;
8104;SDS011;4095;48.942;9.104;2022-12-18T09:35:24;47.60;;;28.07;;
8104;SDS011;4095;48.942;9.104;2022-12-18T09:37:49;43.70;;;26.73;;
8104;SDS011;4095;48.942;9.104;2022-12-18T09:40:19;49.03;;;28.90;;
8104;SDS011;4095;48.942;9.104;2022-12-18T09:42:57;46.33;;;27.33;;
8104;SDS011;4095;48.942;9.104;2022-12-18T09:45:25;45.23;;;26.20;;
8104;SDS011;4095;48.942;9.104;2022-12-18T09:47:52;46.13;;;28.30;;
8104;SDS011;4095;48.942;9.104;2022-12-18T09:52:55;48.70;;;29.60;;
8104;SDS011;4095;48.942;9.104;2022-12-18T10:00:39;46.73;;;28.50;;
8104;SDS011;4095;48.942;9.104;2022-12-18T10:03:12;44.63;;;26.77;;
8104;SDS011;4095;48.942;9.104;2022-12-18T10:05:45;48.43;;;28.20;;
8104;SDS011;4095;48.942;9.104;2022-12-18T10:08:17;62.20;;;33.63;;
8104;SDS011;4095;48.942;9.104;2022-12-18T10:11:20;51.87;;;30.27;;
8104;SDS011;4095;48.942;9.104;2022-12-18T10:13:49;49.97;;;29.27;;
8104;SDS011;4095;48.942;9.104;2022-12-18T10:21:55;44.47;;;26.83;;
8104;SDS011;4095;48.942;9.104;2022-12-18T10:24:49;42.63;;;26.53;;
8104;SDS011;4095;48.942;9.104;2022-12-18T10:27:27;41.47;;;25.97;;
8104;SDS011;4095;48.942;9.104;2022-12-18T10:29:54;40.17;;;26.53;;
8104;SDS011;4095;48.942;9.104;2022-12-18T10:32:24;41.37;;;26.47;;
8104;SDS011;4095;48.942;9.104;2022-12-18T10:34:53;41.53;;;27.27;;
8104;SDS011;4095;48.942;9.104;2022-12-18T10:37:21;45.83;;;27.87;;
8104;SDS011;4095;48.942;9.104;2022-12-18T10:40:05;40.10;;;26.40;;
8104;SDS011;4095;48.942;9.104;2022-12-18T10:42:39;41.40;;;26.97;;
8104;SDS011;4095;48.942;9.104;2022-12-18T10:45:14;41.73;;;27.80;;
8104;SDS011;4095;48.942;9.104;2022-12-18T10:47:46;39.60;;;26.20;;
8104;SDS011;4095;48.942;9.104;2022-12-18T10:50:24;40.10;;;27.07;;
8104;SDS011;4095;48.942;9.104;2022-12-18T10:52:59;38.80;;;26.00;;
8104;SDS011;4095;48.942;9.104;2022-12-18T10:55:27;38.87;;;26.47;;
8104;SDS011;4095;48.942;9.104;2022-12-18T10:58:12;40.20;;;26.27;;
8104;SDS011;4095;48.942;9.104;2022-12-18T11:01:00;39.03;;;26.77;;
8104;SDS011;4095;48.942;9.104;2022-12-18T11:03:44;40.67;;;26.87;;
8104;SDS011;4095;48.942;9.104;2022-12-18T11:06:15;39.83;;;25.57;;
8104;SDS011;4095;48.942;9.104;2022-12-18T11:08:44;41.30;;;27.73;;
8104;SDS011;4095;48.942;9.104;2022-12-18T11:11:23;41.67;;;26.90;;
8104;SDS011;4095;48.942;9.104;2022-12-18T11:13:51;39.07;;;25.63;;
8104;SDS011;4095;48.942;9.104;2022-12-18T11:16:26;39.00;;;27.23;;
8104;SDS011;4095;48.942;9.104;2022-12-18T11:18:53;41.23;;;27.30;;
8104;SDS011;4095;48.942;9.104;2022-12-18T11:21:20;39.23;;;26.60;;
8104;SDS011;4095;48.942;9.104;2022-12-18T11:26:15;41.50;;;28.13;;
8104;SDS011;4095;48.942;9.104;2022-12-18T11:28:43;39.70;;;26.40;;
8104;SDS011;4095;48.942;9.104;2022-12-18T11:31:32;36.13;;;26.17;;
8104;SDS011;4095;48.942;9.104;2022-12-18T11:34:32;41.87;;;27.13;;
8104;SDS011;4095;48.942;9.104;2022-12-18T11:36:55;38.07;;;27.23;;
8104;SDS011;4095;48.942;9.104;2022-12-18T11:39:31;36.10;;;25.97;;
8104;SDS011;4095;48.942;9.104;2022-12-18T11:42:04;37.00;;;26.03;;
8104;SDS011;4095;48.942;9.104;2022-12-18T11:44:42;38.17;;;27.27;;
8104;SDS011;4095;48.942;9.104;2022-12-18T11:50:12;36.80;;;25.50;;
8104;SDS011;4095;48.942;9.104;2022-12-18T11:52:44;38.00;;;25.50;;
8104;SDS011;4095;48.942;9.104;2022-12-18T11:55:24;36.97;;;25.83;;
8104;SDS011;4095;48.942;9.104;2022-12-18T12:01:13;36.23;;;25.37;;
8104;SDS011;4095;48.942;9.104;2022-12-18T12:03:47;39.77;;;25.70;;
8104;SDS011;4095;48.942;9.104;2022-12-18T12:06:34;34.17;;;25.00;;
8104;SDS011;4095;48.942;9.104;2022-12-18T12:09:08;38.93;;;25.90;;
8104;SDS011;4095;48.942;9.104;2022-12-18T12:18:02;38.30;;;25.50;;
8104;SDS011;4095;48.942;9.104;2022-12-18T12:20:49;39.63;;;27.43;;
8104;SDS011;4095;48.942;9.104;2022-12-18T12:40:19;41.27;;;26.97;;
8104;SDS011;4095;48.942;9.104;2022-12-18T12:42:55;40.97;;;26.07;;
8104;SDS011;4095;48.942;9.104;2022-12-18T12:45:44;40.20;;;26.20;;
8104;SDS011;4095;48.942;9.104;2022-12-18T12:48:19;41.73;;;26.17;;
8104;SDS011;4095;48.942;9.104;2022-12-18T12:50:46;44.90;;;27.20;;
8104;SDS011;4095;48.942;9.104;2022-12-18T12:53:15;42.83;;;27.40;;
8104;SDS011;4095;48.942;9.104;2022-12-18T12:55:54;40.60;;;25.97;;
8104;SDS011;4095;48.942;9.104;2022-12-18T13:06:40;43.50;;;26.10;;
8104;SDS011;4095;48.942;9.104;2022-12-18T13:09:08;42.50;;;26.43;;
8104;SDS011;4095;48.942;9.104;2022-12-18T13:11:41;44.10;;;26.43;;
8104;SDS011;4095;48.942;9.104;2022-12-18T13:14:31;45.50;;;27.00;;
8104;SDS011;4095;48.942;9.104;2022-12-18T13:17:15;44.80;;;26.90;;
8104;SDS011;4095;48.942;9.104;2022-12-18T13:19:45;45.23;;;27.93;;
8104;SDS011;4095;48.942;9.104;2022-12-18T13:22:33;44.13;;;27.47;;
8104;SDS011;4095;48.942;9.104;2022-12-18T13:25:01;44.37;;;27.20;;
8104;SDS011;4095;48.942;9.104;2022-12-18T13:40:56;45.83;;;27.67;;
8104;SDS011;4095;48.942;9.104;2022-12-18T13:51:42;48.30;;;28.30;;
8104;SDS011;4095;48.942;9.104;2022-12-18T13:56:57;44.43;;;27.67;;
8104;SDS011;4095;48.942;9.104;2022-12-18T13:59:24;43.37;;;27.33;;
8104;SDS011;4095;48.942;9.104;2022-12-18T14:01:55;41.67;;;26.80;;
8104;SDS011;4095;48.942;9.104;2022-12-18T14:06:54;46.33;;;26.97;;
8104;SDS011;4095;48.942;9.104;2022-12-18T14:09:34;40.67;;;25.37;;
8104;SDS011;4095;48.942;9.104;2022-12-18T14:12:02;41.07;;;26.33;;
8104;SDS011;4095;48.942;9.104;2022-12-18T14:14:47;40.30;;;25.70;;
8104;SDS011;4095;48.942;9.104;2022-12-18T14:17:16;43.13;;;26.10;;
8104;SDS011;4095;48.942;9.104;2022-12-18T14:19:43;40.50;;;25.87;;
8104;SDS011;4095;48.942;9.104;2022-12-18T14:22:14;39.03;;;23.97;;
8104;SDS011;4095;48.942;9.104;2022-12-18T14:24:43;43.60;;;25.73;;
8104;SDS011;4095;48.942;9.104;2022-12-18T14:27:12;42.67;;;25.77;;
8104;SDS011;4095;48.942;9.104;2022-12-18T14:29:46;43.93;;;25.83;;
8104;SDS011;4095;48.942;9.104;2022-12-18T14:32:15;40.83;;;26.33;;
8104;SDS011;4095;48.942;9.104;2022-12-18T14:34:43;45.57;;;26.17;;
8104;SDS011;4095;48.942;9.104;2022-12-18T14:37:10;43.73;;;26.53;;
8104;SDS011;4095;48.942;9.104;2022-12-18T14:39:38;45.17;;;26.50;;
8104;SDS011;4095;48.942;9.104;2022-12-18T14:42:04;42.23;;;25.77;;
8104;SDS011;4095;48.942;9.104;2022-12-18T14:44:31;44.90;;;25.97;;
8104;SDS011;4095;48.942;9.104;2022-12-18T14:46:57;44.13;;;26.07;;
8104;SDS011;4095;48.942;9.104;2022-12-18T14:49:40;45.03;;;27.27;;
8104;SDS011;4095;48.942;9.104;2022-12-18T14:52:15;46.77;;;26.33;;
8104;SDS011;4095;48.942;9.104;2022-12-18T14:54:48;48.03;;;27.30;;
8104;SDS011;4095;48.942;9.104;2022-12-18T14:57:18;48.07;;;26.40;;
8104;SDS011;4095;48.942;9.104;2022-12-18T14:59:47;42.53;;;27.23;;
8104;SDS011;4095;48.942;9.104;2022-12-18T15:02:15;41.10;;;25.53;;
8104;SDS011;4095;48.942;9.104;2022-12-18T15:04:45;42.00;;;26.37;;
8104;SDS011;4095;48.942;9.104;2022-12-18T15:07:18;44.87;;;26.10;;
8104;SDS011;4095;48.942;9.104;2022-12-18T15:10:30;42.83;;;25.73;;
8104;SDS011;4095;48.942;9.104;2022-12-18T15:12:43;46.70;;;27.60;;
8104;SDS011;4095;48.942;9.104;2022-12-18T15:23:24;46.60;;;27.33;;
8104;SDS011;4095;48.942;9.104;2022-12-18T15:26:01;44.90;;;26.73;;
8104;SDS011;4095;48.942;9.104;2022-12-18T15:28:39;48.43;;;27.60;;
8104;SDS011;4095;48.942;9.104;2022-12-18T15:33:46;47.43;;;27.40;;
8104;SDS011;4095;48.942;9.104;2022-12-18T15:36:28;48.30;;;27.30;;
8104;SDS011;4095;48.942;9.104;2022-12-18T15:39:01;46.57;;;27.77;;
8104;SDS011;4095;48.942;9.104;2022-12-18T15:41:27;47.27;;;27.47;;
8104;SDS011;4095;48.942;9.104;2022-12-18T15:43:52;50.20;;;27.77;;
8104;SDS011;4095;48.942;9.104;2022-12-18T15:46:19;45.37;;;27.33;;
8104;SDS011;4095;48.942;9.104;2022-12-18T15:48:51;48.90;;;28.00;;
8104;SDS011;4095;48.942;9.104;2022-12-18T15:51:18;47.70;;;27.23;;
8104;SDS011;4095;48.942;9.104;2022-12-18T15:53:47;47.23;;;27.77;;
8104;SDS011;4095;48.942;9.104;2022-12-18T15:56:15;50.27;;;29.70;;
8104;SDS011;4095;48.942;9.104;2022-12-18T15:59:00;50.83;;;29.37;;
8104;SDS011;4095;48.942;9.104;2022-12-18T16:01:27;55.07;;;29.80;;
8104;SDS011;4095;48.942;9.104;2022-12-18T16:03:54;46.63;;;28.07;;
8104;SDS011;4095;48.942;9.104;2022-12-18T16:06:20;49.70;;;28.97;;
8104;SDS011;4095;48.942;9.104;2022-12-18T16:08:47;47.80;;;28.77;;
8104;SDS011;4095;48.942;9.104;2022-12-18T16:11:20;52.10;;;28.77;;
8104;SDS011;4095;48.942;9.104;2022-12-18T16:14:19;49.53;;;28.80;;
8104;SDS011;4095;48.942;9.104;2022-12-18T16:16:47;50.63;;;28.20;;
8104;SDS011;4095;48.942;9.104;2022-12-18T16:19:14;50.37;;;28.63;;
8104;SDS011;4095;48.942;9.104;2022-12-18T16:21:41;48.77;;;27.27;;
8104;SDS011;4095;48.942;9.104;2022-12-18T16:24:13;44.13;;;26.87;;
8104;SDS011;4095;48.942;9.104;2022-12-18T16:26:41;49.63;;;27.57;;
8104;SDS011;4095;48.942;9.104;2022-12-18T16:29:07;52.27;;;29.60;;
8104;SDS011;4095;48.942;9.104;2022-12-18T16:31:33;49.80;;;28.07;;
8104;SDS011;4095;48.942;9.104;2022-12-18T16:34:12;53.07;;;28.60;;
8104;SDS011;4095;48.942;9.104;2022-12-18T16:36:40;51.17;;;28.57;;
8104;SDS011;4095;48.942;9.104;2022-12-18T16:39:06;50.53;;;27.90;;
8104;SDS011;4095;48.942;9.104;2022-12-18T16:41:31;42.87;;;27.43;;
8104;SDS011;4095;48.942;9.104;2022-12-18T16:43:58;44.47;;;27.63;;
8104;SDS011;4095;48.942;9.104;2022-12-18T16:46:24;50.03;;;27.13;;
8104;SDS011;4095;48.942;9.104;2022-12-18T16:48:49;44.73;;;26.63;;
8104;SDS011;4095;48.942;9.104;2022-12-18T16:51:15;50.57;;;29.37;;
8104;SDS011;4095;48.942;9.104;2022-12-18T16:53:40;48.37;;;28.50;;
8104;SDS011;4095;48.942;9.104;2022-12-18T16:56:06;49.67;;;26.93;;
8104;SDS011;4095;48.942;9.104;2022-12-18T16:58:31;48.93;;;27.97;;